createdAt,value
2022-12-16T00:01:23.570Z,38.35
2022-12-16T00:03:55.455Z,40.22
2022-12-16T00:06:24.266Z,44.17
2022-12-16T00:08:52.004Z,39.22
2022-12-16T00:11:19.950Z,39.60
2022-12-16T00:13:47.394Z,40.53
2022-12-16T00:16:16.673Z,41.50
2022-12-16T00:18:44.894Z,41.30
2022-12-16T00:21:12.378Z,38.88
2022-12-16T00:23:41.456Z,42.53
2022-12-16T00:26:08.811Z,41.70
2022-12-16T00:28:35.551Z,42.17
2022-12-16T00:31:02.300Z,42.67
2022-12-16T00:33:29.001Z,42.45
2022-12-16T00:35:56.423Z,40.90
2022-12-16T00:38:25.300Z,47.08
2022-12-16T00:40:52.241Z,44.65
2022-12-16T00:43:20.221Z,43.53
2022-12-16T00:45:47.846Z,44.65
2022-12-16T00:48:14.921Z,45.75
2022-12-16T00:50:41.631Z,44.78
2022-12-16T00:53:08.583Z,44.60
2022-12-16T00:55:35.217Z,42.45
2022-12-16T00:58:01.814Z,46.30
2022-12-16T01:00:28.385Z,45.65
2022-12-16T01:05:15.020Z,48.28
2022-12-16T01:07:42.003Z,48.30
2022-12-16T01:10:10.490Z,48.40
2022-12-16T01:12:37.867Z,48.88
2022-12-16T01:15:08.015Z,46.95
2022-12-16T01:17:35.300Z,45.28
2022-12-16T01:20:02.374Z,47.20
2022-12-16T01:22:32.058Z,47.75
2022-12-16T01:24:59.698Z,48.05
2022-12-16T01:27:27.224Z,48.00
2022-12-16T01:29:53.851Z,51.80
2022-12-16T01:32:22.362Z,50.00
2022-12-16T01:34:55.372Z,51.17
2022-12-16T01:37:23.748Z,48.80
2022-12-16T01:39:50.459Z,45.75
2022-12-16T01:42:20.220Z,44.47
2022-12-16T01:44:48.618Z,49.90
2022-12-16T01:47:18.602Z,48.50
2022-12-16T01:49:51.323Z,44.55
2022-12-16T01:52:26.079Z,46.20
2022-12-16T01:55:07.688Z,48.97
2022-12-16T01:57:40.911Z,39.97
2022-12-16T02:00:08.394Z,48.60
2022-12-16T02:02:41.968Z,44.08
2022-12-16T02:05:20.928Z,45.15
2022-12-16T02:08:06.018Z,46.22
2022-12-16T02:10:35.362Z,41.22
2022-12-16T02:13:14.348Z,46.75
2022-12-16T02:15:59.135Z,44.22
2022-12-16T02:18:25.629Z,35.78
2022-12-16T02:21:15.213Z,44.85
2022-12-16T02:23:54.018Z,40.17
2022-12-16T02:26:58.695Z,42.65
2022-12-16T02:29:34.091Z,44.28
2022-12-16T02:32:19.291Z,42.38
2022-12-16T02:34:59.027Z,44.65
2022-12-16T02:37:31.319Z,41.58
2022-12-16T02:40:04.042Z,46.63
2022-12-16T02:42:35.863Z,43.90
2022-12-16T02:45:14.918Z,39.70
2022-12-16T02:47:41.490Z,43.53
2022-12-16T02:50:21.614Z,41.50
2022-12-16T02:52:50.352Z,44.28
2022-12-16T02:55:17.005Z,39.10
2022-12-16T02:58:02.080Z,44.33
2022-12-16T03:00:39.979Z,44.30
2022-12-16T03:03:35.743Z,44.97
2022-12-16T03:06:04.684Z,46.58
2022-12-16T03:08:36.776Z,43.28
2022-12-16T03:11:05.855Z,41.97
2022-12-16T03:13:49.918Z,44.55
2022-12-16T03:16:20.588Z,43.40
2022-12-16T03:18:52.907Z,42.55
2022-12-16T03:21:25.779Z,40.92
2022-12-16T03:24:01.638Z,40.70
2022-12-16T03:26:34.480Z,40.63
2022-12-16T03:29:11.299Z,40.70
2022-12-16T03:32:00.653Z,43.25
2022-12-16T03:34:39.171Z,37.97
2022-12-16T03:37:09.496Z,38.42
2022-12-16T03:39:44.574Z,39.63
2022-12-16T03:42:13.459Z,36.78
2022-12-16T03:44:40.050Z,38.00
2022-12-16T03:47:06.962Z,36.47
2022-12-16T03:49:33.571Z,36.42
2022-12-16T03:52:00.184Z,34.05
2022-12-16T03:54:26.847Z,39.00
2022-12-16T03:56:54.234Z,36.05
2022-12-16T03:59:20.787Z,31.58
2022-12-16T04:01:47.681Z,39.10
2022-12-16T04:04:14.234Z,37.08
2022-12-16T04:06:40.826Z,33.33
2022-12-16T04:11:49.926Z,34.33
2022-12-16T04:14:35.245Z,32.25
2022-12-16T04:17:20.850Z,34.38
2022-12-16T04:20:06.441Z,32.67
2022-12-16T04:22:58.652Z,32.05
2022-12-16T04:25:30.682Z,30.88
2022-12-16T04:27:58.548Z,31.25
2022-12-16T04:30:27.618Z,36.50
2022-12-16T04:33:17.898Z,30.85
2022-12-16T04:36:03.707Z,31.23
2022-12-16T04:38:48.903Z,31.83
2022-12-16T04:41:34.479Z,33.78
2022-12-16T04:44:19.698Z,32.50
2022-12-16T04:47:05.118Z,32.05
2022-12-16T04:49:50.491Z,31.58
2022-12-16T04:52:36.651Z,31.10
2022-12-16T04:55:21.968Z,31.13
2022-12-16T04:58:09.989Z,31.02
2022-12-16T05:00:55.019Z,31.60
2022-12-16T05:03:41.343Z,28.67
2022-12-16T05:06:26.578Z,32.60
2022-12-16T05:09:11.620Z,33.92
2022-12-16T05:11:56.822Z,30.98
2022-12-16T05:14:42.106Z,29.75
2022-12-16T05:17:27.330Z,32.08
2022-12-16T05:20:12.758Z,30.88
2022-12-16T05:22:57.819Z,36.05
2022-12-16T05:25:42.721Z,33.42
2022-12-16T05:28:28.022Z,33.38
2022-12-16T05:31:13.135Z,32.65
2022-12-16T05:33:58.447Z,34.53
2022-12-16T05:36:43.786Z,31.48
2022-12-16T05:39:28.959Z,29.27
2022-12-16T05:42:14.692Z,30.00
2022-12-16T05:44:59.923Z,31.67
2022-12-16T05:47:45.690Z,32.00
2022-12-16T05:50:31.067Z,31.73
2022-12-16T05:53:27.722Z,30.17
2022-12-16T05:56:13.075Z,32.55
2022-12-16T05:58:57.947Z,30.70
2022-12-16T06:01:43.068Z,33.97
2022-12-16T06:04:28.311Z,32.17
2022-12-16T06:07:13.579Z,30.85
2022-12-16T06:09:58.491Z,31.73
2022-12-16T06:12:43.670Z,27.40
2022-12-16T06:15:29.479Z,32.47
2022-12-16T06:18:14.666Z,30.67
2022-12-16T06:21:00.227Z,26.83
2022-12-16T06:23:45.379Z,31.63
2022-12-16T06:26:31.054Z,31.85
2022-12-16T06:29:16.101Z,34.00
2022-12-16T06:32:01.257Z,27.65
2022-12-16T06:34:46.805Z,32.22
2022-12-16T06:37:32.077Z,27.48
2022-12-16T06:40:18.409Z,27.58
2022-12-16T06:43:03.610Z,24.30
2022-12-16T06:45:59.553Z,27.35
2022-12-16T06:48:44.622Z,23.77
2022-12-16T06:51:29.924Z,27.38
2022-12-16T06:54:14.820Z,25.83
2022-12-16T06:57:00.199Z,23.48
2022-12-16T06:59:45.174Z,23.25
2022-12-16T07:02:31.060Z,21.88
2022-12-16T07:05:16.292Z,24.35
2022-12-16T07:08:10.617Z,23.73
2022-12-16T07:11:02.318Z,22.63
2022-12-16T07:13:54.366Z,21.50
2022-12-16T07:16:39.397Z,22.42
2022-12-16T07:19:24.654Z,23.30
2022-12-16T07:22:09.903Z,22.80
2022-12-16T07:24:55.075Z,21.70
2022-12-16T07:27:40.403Z,20.98
2022-12-16T07:30:27.477Z,34.47
2022-12-16T07:33:12.522Z,29.55
2022-12-16T07:36:01.461Z,24.58
2022-12-16T07:38:46.684Z,24.02
2022-12-16T07:41:31.691Z,21.92
2022-12-16T07:44:16.868Z,24.45
2022-12-16T07:47:02.121Z,23.02
2022-12-16T07:49:47.407Z,23.67
2022-12-16T07:52:32.456Z,23.52
2022-12-16T07:55:17.859Z,26.52
2022-12-16T07:58:08.656Z,26.92
2022-12-16T08:00:53.846Z,26.27
2022-12-16T08:03:41.775Z,25.65
2022-12-16T08:06:27.748Z,25.40
2022-12-16T08:09:13.407Z,28.13
2022-12-16T08:11:58.781Z,27.40
2022-12-16T08:14:43.956Z,22.48
2022-12-16T08:17:28.930Z,23.52
2022-12-16T08:20:14.249Z,25.38
2022-12-16T08:22:59.838Z,24.80
2022-12-16T08:25:45.063Z,25.48
2022-12-16T08:28:30.179Z,27.27
2022-12-16T08:31:15.208Z,24.55
2022-12-16T08:34:00.474Z,25.52
2022-12-16T08:36:45.686Z,24.33
2022-12-16T08:39:35.199Z,25.98
2022-12-16T08:42:20.095Z,27.17
2022-12-16T08:45:05.424Z,25.73
2022-12-16T08:47:50.648Z,25.98
2022-12-16T08:50:35.965Z,24.90
2022-12-16T08:53:21.177Z,23.40
2022-12-16T08:56:06.690Z,24.00
2022-12-16T08:58:51.854Z,25.67
2022-12-16T09:01:37.865Z,23.55
2022-12-16T09:04:23.485Z,24.42
2022-12-16T09:07:08.712Z,25.63
2022-12-16T09:09:54.138Z,22.63
2022-12-16T09:12:39.605Z,22.95
2022-12-16T09:17:44.414Z,23.48
2022-12-16T09:20:29.993Z,23.83
2022-12-16T09:23:15.360Z,23.23
2022-12-16T09:26:00.612Z,46.55
2022-12-16T09:28:47.507Z,45.95
2022-12-16T09:31:32.421Z,58.85
2022-12-16T09:34:17.563Z,35.83
2022-12-16T09:37:02.960Z,65.00
2022-12-16T09:39:47.881Z,47.95
2022-12-16T09:43:01.261Z,34.88
2022-12-16T09:46:04.568Z,31.15
2022-12-16T09:49:15.611Z,33.20
2022-12-16T09:52:02.551Z,54.53
2022-12-16T09:54:52.391Z,29.17
2022-12-16T09:57:39.225Z,26.45
2022-12-16T10:00:36.547Z,27.65
2022-12-16T10:03:31.650Z,26.48
2022-12-16T10:06:36.004Z,23.63
2022-12-16T10:09:26.859Z,24.95
2022-12-16T10:12:17.836Z,25.35
2022-12-16T10:15:13.410Z,25.73
2022-12-16T10:18:02.680Z,24.35
2022-12-16T10:20:58.550Z,23.02
2022-12-16T10:24:09.692Z,24.17
2022-12-16T10:27:10.141Z,24.10
2022-12-16T10:30:01.860Z,22.73
2022-12-16T10:33:05.150Z,22.67
2022-12-16T10:36:05.725Z,22.48
2022-12-16T10:39:02.177Z,25.15
2022-12-16T10:41:53.196Z,23.08
2022-12-16T10:44:41.739Z,23.85
2022-12-16T10:47:29.274Z,22.33
2022-12-16T10:50:15.727Z,24.98
2022-12-16T10:53:37.868Z,23.08
2022-12-16T10:56:51.403Z,22.67
2022-12-16T10:59:36.686Z,22.42
2022-12-16T11:02:35.345Z,19.35
2022-12-16T11:05:20.967Z,21.15
2022-12-16T11:08:05.882Z,22.48
2022-12-16T11:10:56.262Z,23.33
2022-12-16T11:13:55.150Z,24.13
2022-12-16T11:16:45.482Z,23.48
2022-12-16T11:19:39.978Z,22.30
2022-12-16T11:22:37.848Z,24.25
2022-12-16T11:25:39.382Z,25.75
2022-12-16T11:28:31.651Z,25.23
2022-12-16T11:31:20.460Z,25.90
2022-12-16T11:34:07.586Z,24.40
2022-12-16T11:36:56.258Z,23.52
2022-12-16T11:39:45.061Z,22.42
2022-12-16T11:42:46.040Z,20.17
2022-12-16T11:45:42.207Z,23.63
2022-12-16T11:48:32.724Z,24.63
2022-12-16T11:51:20.391Z,24.42
2022-12-16T11:54:10.815Z,23.58
2022-12-16T11:57:00.116Z,24.83
2022-12-16T11:59:58.111Z,24.85
2022-12-16T12:04:59.659Z,30.13
2022-12-16T12:08:03.734Z,30.80
2022-12-16T12:11:04.108Z,28.42
2022-12-16T12:13:52.497Z,29.13
2022-12-16T12:17:10.258Z,29.17
2022-12-16T12:20:17.524Z,32.90
2022-12-16T12:23:02.633Z,31.90
2022-12-16T12:26:23.517Z,29.60
2022-12-16T12:29:26.889Z,29.15
2022-12-16T12:32:36.764Z,31.20
2022-12-16T12:35:53.186Z,28.98
2022-12-16T12:38:56.158Z,28.88
2022-12-16T12:42:07.892Z,29.42
2022-12-16T12:45:04.994Z,30.65
2022-12-16T12:47:54.746Z,29.70
2022-12-16T12:50:55.475Z,27.08
2022-12-16T12:53:53.840Z,29.05
2022-12-16T12:56:42.503Z,27.20
2022-12-16T12:59:38.039Z,31.05
2022-12-16T13:02:30.531Z,31.23
2022-12-16T13:05:21.115Z,32.90
2022-12-16T13:08:09.791Z,34.63
2022-12-16T13:10:56.248Z,35.92
2022-12-16T13:13:49.066Z,31.98
2022-12-16T13:19:48.015Z,34.30
2022-12-16T13:22:54.503Z,35.03
2022-12-16T13:25:55.398Z,35.53
2022-12-16T13:28:49.328Z,40.00
2022-12-16T13:31:35.536Z,37.40
2022-12-16T13:34:48.692Z,32.38
2022-12-16T13:37:42.438Z,39.92
2022-12-16T13:40:38.332Z,42.92
2022-12-16T13:43:24.485Z,37.97
2022-12-16T13:46:15.981Z,42.97
2022-12-16T13:49:01.871Z,42.28
2022-12-16T13:51:55.987Z,44.08
2022-12-16T13:54:48.516Z,42.25
2022-12-16T13:57:37.105Z,40.20
2022-12-16T14:00:24.244Z,40.17
2022-12-16T14:03:11.604Z,42.67
2022-12-16T14:06:02.028Z,45.58
2022-12-16T14:08:54.624Z,47.08
2022-12-16T14:15:00.269Z,40.30
2022-12-16T14:18:31.280Z,42.67
2022-12-16T14:21:21.076Z,42.28
2022-12-16T14:24:12.460Z,43.22
2022-12-16T14:26:58.760Z,44.63
2022-12-16T14:29:49.065Z,42.08
2022-12-16T14:32:52.374Z,46.10
2022-12-16T14:35:37.601Z,44.85
2022-12-16T14:39:05.648Z,43.63
2022-12-16T14:41:51.003Z,44.60
2022-12-16T14:44:39.373Z,43.83
2022-12-16T14:47:24.878Z,40.75
2022-12-16T14:50:13.058Z,40.25
2022-12-16T14:52:58.763Z,39.88
2022-12-16T14:55:50.623Z,41.97
2022-12-16T14:58:38.589Z,45.28
2022-12-16T15:01:39.105Z,41.03
2022-12-16T15:04:32.365Z,41.83
2022-12-16T15:07:17.904Z,36.97
2022-12-16T15:10:07.039Z,38.08
2022-12-16T15:13:02.169Z,39.15
2022-12-16T15:16:07.523Z,36.92
2022-12-16T15:18:57.620Z,36.55
2022-12-16T15:21:42.675Z,36.50
2022-12-16T15:24:37.080Z,40.75
2022-12-16T15:27:33.727Z,39.38
2022-12-16T15:30:19.173Z,43.38
2022-12-16T15:33:11.411Z,42.38
2022-12-16T15:35:57.540Z,42.72
2022-12-16T15:38:51.790Z,40.83
2022-12-16T15:41:49.501Z,38.97
2022-12-16T15:44:41.267Z,37.35
2022-12-16T15:47:50.498Z,40.50
2022-12-16T15:50:39.924Z,40.13
2022-12-16T15:53:47.217Z,46.42
2022-12-16T15:56:41.476Z,46.95
2022-12-16T15:59:56.705Z,55.15
2022-12-16T16:02:48.032Z,58.22
2022-12-16T16:05:39.418Z,60.47
2022-12-16T16:08:24.806Z,52.65
2022-12-16T16:11:10.547Z,43.55
2022-12-16T16:13:59.347Z,47.38
2022-12-16T16:16:49.623Z,51.40
2022-12-16T16:19:45.365Z,50.95
2022-12-16T16:22:35.414Z,54.40
2022-12-16T16:25:20.574Z,52.60
2022-12-16T16:28:06.263Z,56.65
2022-12-16T16:30:51.444Z,57.45
2022-12-16T16:33:37.086Z,51.90
2022-12-16T16:36:33.233Z,53.05
2022-12-16T16:39:19.316Z,49.35
2022-12-16T16:42:04.347Z,49.45
2022-12-16T16:44:49.712Z,53.83
2022-12-16T16:50:06.557Z,56.03
2022-12-16T16:52:51.618Z,61.05
2022-12-16T16:55:39.307Z,63.40
2022-12-16T16:58:30.569Z,52.83
2022-12-16T17:01:15.904Z,53.70
2022-12-16T17:04:01.746Z,51.17
2022-12-16T17:06:46.815Z,55.22
2022-12-16T17:09:32.198Z,60.53
2022-12-16T17:12:18.584Z,56.03
2022-12-16T17:15:03.855Z,55.50
2022-12-16T17:17:48.974Z,55.78
2022-12-16T17:20:35.442Z,77.15
2022-12-16T17:23:20.718Z,81.93
2022-12-16T17:26:05.899Z,80.57
2022-12-16T17:28:51.127Z,60.70
2022-12-16T17:31:36.551Z,64.53
2022-12-16T17:34:21.776Z,65.40
2022-12-16T17:37:10.187Z,64.57
2022-12-16T17:39:55.381Z,68.13
2022-12-16T17:42:46.311Z,69.65
2022-12-16T17:45:32.224Z,67.10
2022-12-16T17:48:17.300Z,69.85
2022-12-16T17:53:19.314Z,59.78
2022-12-16T17:56:04.410Z,66.35
2022-12-16T17:59:05.966Z,67.38
2022-12-16T18:01:51.124Z,65.40
2022-12-16T18:04:36.476Z,64.68
2022-12-16T18:07:21.560Z,66.45
2022-12-16T18:10:06.437Z,67.70
2022-12-16T18:12:52.074Z,66.90
2022-12-16T18:15:37.631Z,64.05
2022-12-16T18:18:24.654Z,65.60
2022-12-16T18:21:10.184Z,60.40
2022-12-16T18:23:55.560Z,65.65
2022-12-16T18:26:43.568Z,63.20
2022-12-16T18:29:30.057Z,68.60
2022-12-16T18:32:15.339Z,68.25
2022-12-16T18:35:00.960Z,74.00
2022-12-16T18:37:46.275Z,64.40
2022-12-16T18:40:31.506Z,68.90
2022-12-16T18:43:17.924Z,67.38
2022-12-16T18:46:10.568Z,64.78
2022-12-16T18:51:41.446Z,54.47
2022-12-16T18:54:26.637Z,54.38
2022-12-16T18:57:11.749Z,66.05
2022-12-16T18:59:57.036Z,51.78
2022-12-16T19:02:42.659Z,55.45
2022-12-16T19:05:27.898Z,57.42
2022-12-16T19:08:14.593Z,49.70
2022-12-16T19:10:59.746Z,53.92
2022-12-16T19:13:44.968Z,53.80
2022-12-16T19:16:30.264Z,56.40
2022-12-16T19:19:20.180Z,53.35
2022-12-16T19:22:06.464Z,62.72
2022-12-16T19:24:51.884Z,63.35
2022-12-16T19:27:37.368Z,61.00
2022-12-16T19:30:23.205Z,47.03
2022-12-16T19:33:08.401Z,48.17
2022-12-16T19:35:54.276Z,31.15
2022-12-16T19:38:42.193Z,47.88
2022-12-16T19:41:35.195Z,45.80
2022-12-16T19:44:23.791Z,38.08
2022-12-16T19:47:10.972Z,44.05
2022-12-16T19:49:56.339Z,37.95
2022-12-16T19:52:42.648Z,46.47
2022-12-16T19:55:30.033Z,44.45
2022-12-16T19:58:15.375Z,48.28
2022-12-16T20:01:00.676Z,45.70
2022-12-16T20:03:46.385Z,46.65
2022-12-16T20:06:33.878Z,47.78
2022-12-16T20:09:19.277Z,51.53
2022-12-16T20:12:04.884Z,50.47
2022-12-16T20:14:56.593Z,38.57
2022-12-16T20:17:41.930Z,42.45
2022-12-16T20:20:31.017Z,45.85
2022-12-16T20:23:16.674Z,49.92
2022-12-16T20:26:04.697Z,47.35
2022-12-16T20:28:53.083Z,42.17
2022-12-16T20:31:41.795Z,48.50
2022-12-16T20:34:39.094Z,48.10
2022-12-16T20:37:27.643Z,46.05
2022-12-16T20:40:13.038Z,44.30
2022-12-16T20:43:01.778Z,43.55
2022-12-16T20:45:47.207Z,45.20
2022-12-16T20:48:33.847Z,44.15
2022-12-16T20:51:26.488Z,44.50
2022-12-16T20:54:12.864Z,41.17
2022-12-16T20:56:58.606Z,43.25
2022-12-16T20:59:46.650Z,36.13
2022-12-16T21:02:39.664Z,39.67
2022-12-16T21:05:32.038Z,45.03
2022-12-16T21:08:17.557Z,43.80
2022-12-16T21:11:02.858Z,49.97
2022-12-16T21:13:49.376Z,46.63
2022-12-16T21:16:34.604Z,46.15
2022-12-16T21:19:19.804Z,47.80
2022-12-16T21:22:04.955Z,37.15
2022-12-16T21:24:50.000Z,44.35
2022-12-16T21:27:35.278Z,46.58
2022-12-16T21:30:20.929Z,47.55
2022-12-16T21:33:08.813Z,52.67
2022-12-16T21:35:56.083Z,53.13
2022-12-16T21:38:42.420Z,50.05
2022-12-16T21:41:28.057Z,48.47
2022-12-16T21:44:13.231Z,46.25
2022-12-16T21:46:58.449Z,46.92
2022-12-16T21:49:46.051Z,42.10
2022-12-16T21:52:31.079Z,44.53
2022-12-16T21:55:16.312Z,42.67
2022-12-16T21:58:02.115Z,44.88
2022-12-16T22:00:47.116Z,43.47
2022-12-16T22:03:32.440Z,44.10
2022-12-16T22:06:18.259Z,49.67
2022-12-16T22:09:03.408Z,48.30
2022-12-16T22:11:49.569Z,39.42
2022-12-16T22:14:35.008Z,55.53
2022-12-16T22:17:20.426Z,50.33
2022-12-16T22:20:05.848Z,44.13
2022-12-16T22:22:51.202Z,48.30
2022-12-16T22:25:37.084Z,51.53
2022-12-16T22:28:22.067Z,42.25
2022-12-16T22:31:15.979Z,60.25
2022-12-16T22:34:02.353Z,49.97
2022-12-16T22:36:49.143Z,54.17
2022-12-16T22:39:34.407Z,48.45
2022-12-16T22:42:19.748Z,49.88
2022-12-16T22:45:04.974Z,50.47
2022-12-16T22:47:50.756Z,61.67
2022-12-16T22:50:50.831Z,51.88
2022-12-16T22:53:36.774Z,50.95
2022-12-16T22:56:35.665Z,48.58
2022-12-16T22:59:20.695Z,51.00
2022-12-16T23:02:06.002Z,50.88
2022-12-16T23:04:51.450Z,51.92
2022-12-16T23:07:37.219Z,53.80
2022-12-16T23:10:22.868Z,53.95
2022-12-16T23:13:07.848Z,46.72
2022-12-16T23:15:56.575Z,48.65
2022-12-16T23:18:41.940Z,60.60
2022-12-16T23:21:33.875Z,56.58
2022-12-16T23:24:19.162Z,56.75
2022-12-16T23:27:04.327Z,55.90
2022-12-16T23:29:49.434Z,51.95
2022-12-16T23:35:25.167Z,58.40
2022-12-16T23:40:23.584Z,51.15
2022-12-16T23:43:11.738Z,53.85
2022-12-16T23:45:57.105Z,49.90
2022-12-16T23:48:42.227Z,55.38
2022-12-16T23:51:27.486Z,55.67
2022-12-16T23:54:13.006Z,54.38
2022-12-16T23:56:58.200Z,51.95
2022-12-16T23:59:43.436Z,53.38
